Time;durP1;ratioP1;P1;durP2;ratioP2;P2;SDS_P1;SDS_P2;PMS_P1;PMS_P2;Temp;Humidity;BMP_temperature;BMP_pressure;BME280_temperature;BME280_humidity;BME280_pressure;Samples;Min_cycle;Max_cycle;Signal;HPM_P1;HPM_P2
2023/08/27 00:08:37;;;;;;;2.65;1.98;;;;;;;16.63;57.63;99951.38;20895221;28;20216;-86
2023/08/27 00:18:40;;;;;;;3.25;2.17;;;;;;;15.87;60.45;99947.44;20886454;28;20220;-85
2023/08/27 00:28:42;;;;;;;3.13;2.03;;;;;;;15.74;60.67;99955.25;20887423;28;20220;-86
2023/08/27 00:38:45;;;;;;;5.00;1.75;;;;;;;16.37;58.09;99926.53;20898946;28;20645;-89
2023/08/27 00:48:47;;;;;;;4.65;1.83;;;;;;;16.17;59.30;99898.19;20891726;28;20704;-84
2023/08/27 00:58:50;;;;;;;2.17;1.95;;;;;;;16.02;59.19;99875.56;20882846;28;20585;-85
2023/08/27 01:08:56;;;;;;;4.20;2.65;;;;;;;15.71;61.34;99856.72;20918076;28;20250;-83
2023/08/27 01:19:00;;;;;;;2.70;2.20;;;;;;;15.17;62.88;99871.81;20942074;28;20646;-80
2023/08/27 01:29:23;;;;;;;6.45;2.45;;;;;;;15.24;61.42;99893.81;20929310;28;20226;-87
2023/08/27 01:39:25;;;;;;;2.45;2.00;;;;;;;15.06;61.53;99880.09;20913216;28;20334;-86
2023/08/27 01:49:28;;;;;;;2.67;1.77;;;;;;;15.38;60.69;99871.44;20933799;28;20200;-86
2023/08/27 01:59:30;;;;;;;2.20;1.77;;;;;;;15.08;61.14;99874.00;20919238;28;20221;-85
2023/08/27 02:09:33;;;;;;;3.58;1.85;;;;;;;15.36;60.74;99873.81;20931139;28;20203;-87
2023/08/27 02:19:34;;;;;;;1.42;1.33;;;;;;;15.16;60.68;99858.81;20917578;28;20221;-83
2023/08/27 02:29:37;;;;;;;4.90;1.55;;;;;;;15.12;60.28;99857.91;20930682;28;20270;-87
2023/08/27 02:39:39;;;;;;;1.98;1.17;;;;;;;15.62;58.49;99845.59;20921296;28;20247;-83
2023/08/27 02:49:42;;;;;;;3.88;1.65;;;;;;;15.63;58.20;99818.88;20925374;28;20307;-84
2023/08/27 02:59:44;;;;;;;4.88;1.58;;;;;;;15.27;59.46;99825.03;20916784;28;20215;-85
2023/08/27 03:09:47;;;;;;;1.08;1.00;;;;;;;15.79;58.16;99822.47;20912945;28;20497;-84
2023/08/27 03:19:48;;;;;;;3.15;1.48;;;;;;;15.72;58.64;99796.75;20918940;28;20224;-84
2023/08/27 03:29:51;;;;;;;1.58;1.20;;;;;;;15.42;59.06;99805.13;20918578;28;20216;-87
2023/08/27 03:39:53;;;;;;;2.10;1.05;;;;;;;15.14;59.85;99807.34;20919057;28;20236;-87
2023/08/27 03:49:56;;;;;;;2.20;0.98;;;;;;;14.89;60.10;99809.63;20929000;28;20202;-87
2023/08/27 03:59:58;;;;;;;1.30;0.93;;;;;;;14.93;60.06;99804.88;20922200;28;20319;-87
2023/08/27 04:10:01;;;;;;;1.90;1.13;;;;;;;14.77;60.44;99818.25;20913138;28;20204;-87
2023/08/27 04:20:03;;;;;;;1.83;0.82;;;;;;;14.83;61.27;99807.44;20937814;28;20219;-85
2023/08/27 04:30:09;;;;;;;1.48;0.80;;;;;;;14.98;60.71;99812.22;20944475;28;20295;-86
2023/08/27 04:40:12;;;;;;;2.35;0.98;;;;;;;14.77;60.86;99801.25;20949032;28;20310;-88
2023/08/27 04:50:15;;;;;;;1.60;0.73;;;;;;;14.43;60.99;99790.72;20941297;28;20275;-84
2023/08/27 05:00:20;;;;;;;3.92;1.20;;;;;;;14.99;59.07;99803.41;20931458;28;20219;-87
2023/08/27 05:10:23;;;;;;;2.15;0.85;;;;;;;15.19;58.92;99797.75;20926541;28;20224;-85
2023/08/27 05:20:25;;;;;;;1.83;1.23;;;;;;;15.40;56.76;99790.50;20953666;28;20216;-84
2023/08/27 05:30:28;;;;;;;1.67;0.50;;;;;;;15.53;57.31;99776.97;20944872;28;20221;-86
2023/08/27 05:40:29;;;;;;;1.05;0.60;;;;;;;15.73;55.88;99770.03;20919006;28;20232;-79
2023/08/27 05:50:36;;;;;;;0.63;0.60;;;;;;;16.00;55.23;99770.13;20899428;28;20227;-87
2023/08/27 06:00:38;;;;;;;0.70;0.50;;;;;;;16.22;54.78;99797.69;20907413;28;20219;-84
2023/08/27 06:10:41;;;;;;;1.80;0.55;;;;;;;15.12;60.97;99820.25;20892889;28;20495;-85
2023/08/27 06:20:43;;;;;;;1.33;0.50;;;;;;;15.65;59.18;99807.16;20897047;28;20238;-87
2023/08/27 06:30:46;;;;;;;1.63;0.90;;;;;;;15.44;60.40;99831.09;20907852;28;20311;-87
2023/08/27 06:40:48;;;;;;;4.65;0.70;;;;;;;14.64;65.35;99837.38;20929667;28;20230;-85
2023/08/27 06:50:52;;;;;;;0.68;0.50;;;;;;;14.98;67.19;99838.56;20907593;28;20591;-87
2023/08/27 07:00:54;;;;;;;1.63;0.85;;;;;;;15.33;66.48;99851.91;20923875;28;20256;-83
2023/08/27 07:10:57;;;;;;;0.73;0.73;;;;;;;15.86;65.50;99852.16;20896716;28;20520;-86
2023/08/27 07:21:00;;;;;;;1.08;0.80;;;;;;;16.07;66.39;99872.44;20908073;28;20246;-88
2023/08/27 07:31:03;;;;;;;2.35;1.00;;;;;;;15.68;65.32;99875.31;20903522;28;20246;-83
2023/08/27 07:41:05;;;;;;;2.05;1.15;;;;;;;15.62;68.49;99859.78;20899843;28;21264;-83
2023/08/27 07:51:08;;;;;;;1.63;1.08;;;;;;;16.40;64.30;99837.72;20891978;28;20237;-87
2023/08/27 08:01:09;;;;;;;1.13;0.93;;;;;;;16.83;62.51;99840.06;20910488;28;20340;-86
2023/08/27 08:11:16;;;;;;;2.38;1.55;;;;;;;16.32;65.08;99830.28;20933819;28;20588;-83
2023/08/27 08:21:19;;;;;;;2.60;1.98;;;;;;;17.09;64.07;99846.91;20870654;28;20305;-85
2023/08/27 08:31:24;;;;;;;2.30;2.10;;;;;;;16.12;65.36;99869.25;20901162;28;20254;-88
2023/08/27 08:41:27;;;;;;;2.40;2.10;;;;;;;15.85;65.54;99878.91;20903414;28;20266;-86
2023/08/27 08:51:31;;;;;;;4.55;1.63;;;;;;;16.14;66.24;99864.84;20917666;28;20207;-85
2023/08/27 09:01:33;;;;;;;3.45;2.20;;;;;;;17.06;60.86;99868.41;20901377;28;20363;-88
2023/08/27 09:11:37;;;;;;;1.23;1.13;;;;;;;17.03;60.53;99880.53;20908453;28;20202;-85
2023/08/27 09:21:41;;;;;;;2.00;1.30;;;;;;;16.88;59.39;99863.69;20870738;28;20219;-81
2023/08/27 09:31:44;;;;;;;2.38;1.20;;;;;;;17.44;58.43;99855.13;20884230;28;20298;-81
2023/08/27 09:41:47;;;;;;;3.78;1.27;;;;;;;17.40;58.62;99851.44;20853649;28;20228;-83
2023/08/27 09:51:56;;;;;;;1.48;1.15;;;;;;;17.39;57.59;99846.94;20800329;28;20212;-81
2023/08/27 10:01:58;;;;;;;0.82;0.77;;;;;;;16.97;55.51;99828.06;20811503;28;20228;-79
2023/08/27 10:12:02;;;;;;;2.05;0.95;;;;;;;18.12;52.34;99797.75;20806632;28;20207;-82
2023/08/27 10:22:05;;;;;;;0.98;0.90;;;;;;;17.43;53.88;99805.13;20797026;28;20641;-82
2023/08/27 10:32:08;;;;;;;3.10;1.30;;;;;;;17.41;53.79;99801.84;20790747;28;20584;-82
2023/08/27 10:42:30;;;;;;;3.35;1.08;;;;;;;17.96;50.19;99793.50;20839556;28;20366;-82
2023/08/27 10:52:50;;;;;;;1.67;1.25;;;;;;;17.68;50.91;99800.53;20883371;28;20359;-80
2023/08/27 11:02:58;;;;;;;1.98;0.63;;;;;;;17.19;49.68;99801.56;20874890;28;20224;-82
2023/08/27 11:13:01;;;;;;;1.25;0.63;;;;;;;18.91;46.99;99774.31;20855422;28;20227;-81
2023/08/27 11:23:09;;;;;;;1.48;0.65;;;;;;;19.43;46.72;99771.28;20831906;28;20226;-81
2023/08/27 11:33:14;;;;;;;1.95;0.63;;;;;;;19.39;46.14;99767.59;20840466;28;20220;-81
2023/08/27 11:43:24;;;;;;;0.88;0.47;;;;;;;19.17;45.39;99767.50;20838678;28;20747;-77
2023/08/27 11:53:28;;;;;;;1.42;0.70;;;;;;;18.65;45.89;99771.72;20851390;28;20211;-80
2023/08/27 12:03:29;;;;;;;2.47;0.60;;;;;;;19.07;45.61;99764.63;20890124;28;20230;-81
2023/08/27 12:13:32;;;;;;;0.93;0.65;;;;;;;18.09;46.91;99763.53;20841787;28;20203;-81
2023/08/27 12:23:34;;;;;;;0.63;0.47;;;;;;;18.97;45.61;99752.75;20840832;28;20418;-85
2023/08/27 12:33:44;;;;;;;1.05;0.50;;;;;;;19.31;44.79;99733.34;20844665;28;20341;-81
2023/08/27 12:43:46;;;;;;;2.22;0.50;;;;;;;19.43;42.06;99726.47;20872021;28;20231;-81
2023/08/27 12:53:50;;;;;;;1.25;0.60;;;;;;;20.81;40.23;99704.78;20877264;28;20208;-82
2023/08/27 13:03:52;;;;;;;2.17;0.57;;;;;;;21.28;38.94;99706.25;20910743;28;20508;-80
2023/08/27 13:13:55;;;;;;;1.48;0.60;;;;;;;19.58;41.53;99721.59;20905326;28;20256;-80
2023/08/27 13:23:57;;;;;;;2.33;0.47;;;;;;;19.55;41.39;99714.66;20895148;28;20202;-80
2023/08/27 13:34:00;;;;;;;1.08;0.50;;;;;;;19.79;41.61;99718.75;20883775;28;20230;-81
2023/08/27 13:44:02;;;;;;;1.33;0.40;;;;;;;20.11;39.94;99735.13;20886268;28;20219;-80
2023/08/27 13:54:08;;;;;;;1.58;0.43;;;;;;;19.77;41.99;99726.91;20878268;28;20195;-80
2023/08/27 14:04:10;;;;;;;2.05;0.40;;;;;;;16.47;46.61;99855.72;20838781;28;20200;-80
2023/08/27 14:14:15;;;;;;;4.47;0.88;;;;;;;15.25;60.28;99878.44;20895623;28;20289;-81
2023/08/27 14:24:17;;;;;;;2.47;0.45;;;;;;;15.29;61.70;99863.16;20906135;28;20208;-81
2023/08/27 14:34:20;;;;;;;1.33;0.52;;;;;;;15.69;62.29;99839.25;20887863;28;20670;-81
2023/08/27 14:44:22;;;;;;;1.92;0.70;;;;;;;17.12;63.26;99829.91;20854893;28;20262;-81
2023/08/27 14:54:26;;;;;;;4.05;0.85;;;;;;;16.31;64.29;99831.47;20799079;28;20199;-80
2023/08/27 15:04:35;;;;;;;1.23;0.40;;;;;;;16.84;58.76;99826.66;20818367;28;20224;-81
2023/08/27 15:14:38;;;;;;;1.02;0.65;;;;;;;16.98;60.76;99823.22;20818176;28;20220;-81
2023/08/27 15:24:41;;;;;;;1.85;1.10;;;;;;;17.02;61.57;99824.88;20821313;28;20200;-81
2023/08/27 15:34:44;;;;;;;2.83;0.82;;;;;;;17.33;60.93;99823.69;20809350;28;20255;-79
2023/08/27 15:44:46;;;;;;;1.48;0.88;;;;;;;16.94;61.06;99811.78;20802542;28;20316;-79
2023/08/27 15:54:49;;;;;;;1.38;0.88;;;;;;;16.95;58.37;99818.28;20832704;28;20215;-80
2023/08/27 16:04:52;;;;;;;1.83;0.63;;;;;;;16.62;58.32;99821.88;20814884;28;20227;-80
2023/08/27 16:14:55;;;;;;;1.80;0.63;;;;;;;16.69;56.79;99842.69;20806616;28;20224;-79
2023/08/27 16:24:58;;;;;;;2.30;0.70;;;;;;;16.85;54.78;99839.69;20819564;28;20208;-81
2023/08/27 16:35:02;;;;;;;1.27;0.50;;;;;;;16.81;54.65;99824.59;20799600;28;20228;-80
2023/08/27 16:45:05;;;;;;;2.90;0.60;;;;;;;16.86;55.97;99833.63;20836247;28;20309;-79
2023/08/27 16:55:10;;;;;;;0.68;0.40;;;;;;;16.88;53.97;99850.28;20880792;28;20228;-80
2023/08/27 17:05:11;;;;;;;2.47;0.30;;;;;;;16.39;53.51;99858.78;20895398;28;20199;-80
2023/08/27 17:15:15;;;;;;;1.52;0.63;;;;;;;16.34;54.61;99862.78;20931340;28;20512;-79
2023/08/27 17:25:17;;;;;;;2.50;0.80;;;;;;;15.86;55.08;99874.84;20910595;28;21082;-77
2023/08/27 17:35:21;;;;;;;0.50;0.45;;;;;;;16.51;54.04;99879.31;20907102;28;20227;-78
2023/08/27 17:45:23;;;;;;;4.35;3.58;;;;;;;16.36;55.81;99890.81;20929620;28;20686;-78
2023/08/27 17:55:26;;;;;;;1.05;0.90;;;;;;;15.85;55.77;99913.75;20931974;28;20218;-77
2023/08/27 18:05:28;;;;;;;1.00;0.60;;;;;;;15.90;56.49;99932.50;20923072;28;20209;-78
2023/08/27 18:15:31;;;;;;;1.83;0.30;;;;;;;15.89;56.80;99936.53;20897164;28;20423;-78
2023/08/27 18:25:33;;;;;;;2.47;1.02;;;;;;;15.97;57.63;99944.84;20890192;28;20196;-79
2023/08/27 18:35:36;;;;;;;0.75;0.63;;;;;;;15.62;57.47;99947.72;20890818;28;20232;-80
2023/08/27 18:45:38;;;;;;;0.98;0.22;;;;;;;16.29;56.94;99953.13;20854035;28;20225;-80
2023/08/27 18:55:43;;;;;;;1.63;0.57;;;;;;;16.27;59.59;99973.38;20805591;28;20250;-80
2023/08/27 19:05:45;;;;;;;1.45;0.52;;;;;;;16.14;58.89;99974.75;20821402;28;20216;-79
2023/08/27 19:15:49;;;;;;;2.13;0.90;;;;;;;16.08;59.64;99990.44;20830190;28;20222;-80
2023/08/27 19:25:50;;;;;;;0.68;0.60;;;;;;;15.66;60.78;100013.84;20805471;28;20203;-80
2023/08/27 19:35:53;;;;;;;1.35;0.60;;;;;;;15.43;62.28;100004.41;20812166;28;20348;-80
2023/08/27 19:45:56;;;;;;;2.60;1.33;;;;;;;15.17;64.47;100007.03;20877366;28;20239;-80
2023/08/27 19:55:59;;;;;;;2.20;0.93;;;;;;;15.35;63.11;100019.59;20880738;28;20223;-80
2023/08/27 20:06:01;;;;;;;1.45;0.90;;;;;;;15.18;61.20;100014.34;20902218;28;20203;-80
2023/08/27 20:16:04;;;;;;;1.85;1.00;;;;;;;15.40;59.97;100017.31;20915774;28;20230;-80
2023/08/27 20:26:06;;;;;;;0.95;0.70;;;;;;;15.16;60.34;100028.88;20926257;28;20199;-79
2023/08/27 20:36:10;;;;;;;2.25;0.70;;;;;;;15.31;60.54;100035.72;20911965;28;20223;-79
2023/08/27 20:46:11;;;;;;;1.50;1.05;;;;;;;15.27;59.66;100046.97;20916557;28;20318;-80
2023/08/27 20:56:14;;;;;;;1.00;0.90;;;;;;;14.79;61.09;100058.66;20907283;28;20230;-80
2023/08/27 21:06:16;;;;;;;1.48;0.90;;;;;;;14.85;60.71;100057.19;20912347;28;20207;-80
2023/08/27 21:16:19;;;;;;;1.52;0.70;;;;;;;15.03;59.95;100073.50;20915607;28;20247;-79
2023/08/27 21:26:21;;;;;;;1.67;1.13;;;;;;;14.97;60.20;100076.94;20892628;28;20204;-80
2023/08/27 21:36:24;;;;;;;2.92;1.20;;;;;;;14.91;60.07;100082.06;20884483;28;20242;-79
2023/08/27 21:46:26;;;;;;;2.95;1.35;;;;;;;14.47;61.22;100089.75;20852061;28;20235;-80
2023/08/27 21:56:29;;;;;;;2.30;1.05;;;;;;;15.09;59.80;100103.19;20868682;28;20704;-80
2023/08/27 22:06:31;;;;;;;2.20;1.52;;;;;;;14.99;60.80;100097.25;20875142;28;20215;-80
2023/08/27 22:16:34;;;;;;;3.80;1.67;;;;;;;14.30;61.62;100104.19;20870689;28;20236;-80
2023/08/27 22:26:36;;;;;;;1.97;1.30;;;;;;;14.97;60.37;100086.25;20854376;28;20201;-80
2023/08/27 22:36:39;;;;;;;2.70;1.60;;;;;;;14.81;62.16;100108.06;20855292;28;20230;-80
2023/08/27 22:46:41;;;;;;;2.38;1.60;;;;;;;14.16;61.87;100081.13;20859129;28;20236;-79
2023/08/27 22:56:44;;;;;;;1.50;1.40;;;;;;;13.84;64.15;100111.28;20842482;28;20220;-79
2023/08/27 23:06:45;;;;;;;2.72;1.65;;;;;;;14.57;62.14;100089.22;20867168;28;20208;-80
2023/08/27 23:16:50;;;;;;;1.75;1.55;;;;;;;14.52;61.18;100088.66;20856070;28;20234;-79
2023/08/27 23:26:52;;;;;;;3.67;1.73;;;;;;;14.16;62.56;100084.75;20895560;28;20199;-80
2023/08/27 23:36:59;;;;;;;4.32;2.40;;;;;;;13.97;63.71;100093.09;20904389;28;20250;-79
2023/08/27 23:47:01;;;;;;;2.33;2.03;;;;;;;13.64;63.85;100099.75;20921282;28;20219;-79
2023/08/27 23:57:05;;;;;;;6.88;1.83;;;;;;;13.75;64.05;100110.59;20945214;28;20230;-80
